MUHA/HAV METAR and TAF weather

Enter ICAO airport designator
Station Type Date Time Source
MUHA METAR 2021/09/24 04:55 UTC NOAA

MUHA 240455Z VRB01KT 9000 SCT030 22/22 Q1014


Station Type Date Time Source
MUHA Decoded METAR 2021/09/24 04:55 UTC NOAA

Aeropuerto Jose Marti, Rancho-Boyeros, Habana, Cuba (MUHA) 22-59N 082-24W 75M
Sep 24, 2021 - 12:55 AM EDT / 2021.09.24 0455 UTC
Wind: Variable at 1 MPH (1 KT):0
Visibility: 5 mile(s):0
Sky conditions: partly cloudy
Temperature: 71 F (22 C)
Dew Point: 71 F (22 C)
Relative Humidity: 100%
Pressure (altimeter): 29.94 in. Hg (1014 hPa)
ob: MUHA 240455Z VRB01KT 9000 SCT030 22/22 Q1014
cycle: 5

Station Type Date Time Source
MUHA TAF 2021/09/24 06:03 UTC NOAA

TAF MUHA 240500Z 2406/2506 VRB03KT 9000 SCT030
TEMPO 2419/2422 VRB10KT 3000 TSRA SCT018CB BKN020
BECMG 2423/2424 BKN030
BECMG 2501/2502 SCT030

Example: see airport list